createdAt,value
2018-10-03T00:01:10.020Z,7.67
2018-10-03T00:03:38.204Z,8.23
2018-10-03T00:06:06.431Z,7.90
2018-10-03T00:08:34.663Z,7.17
2018-10-03T00:11:02.839Z,6.73
2018-10-03T00:13:31.010Z,7.50
2018-10-03T00:15:59.228Z,7.47
2018-10-03T00:18:27.441Z,7.20
2018-10-03T00:20:55.698Z,6.50
2018-10-03T00:23:23.951Z,6.57
2018-10-03T00:25:52.085Z,7.30
2018-10-03T00:28:21.503Z,6.33
2018-10-03T00:30:49.695Z,6.20
2018-10-03T00:33:17.891Z,6.40
2018-10-03T00:35:46.081Z,7.20
2018-10-03T00:38:14.277Z,7.43
2018-10-03T00:40:43.314Z,7.03
2018-10-03T00:43:11.592Z,6.53
2018-10-03T00:45:39.875Z,7.27
2018-10-03T00:48:08.535Z,7.47
2018-10-03T00:50:37.580Z,7.70
2018-10-03T00:53:05.987Z,7.63
2018-10-03T00:55:34.178Z,7.03
2018-10-03T00:58:02.474Z,6.97
2018-10-03T01:00:31.570Z,7.83
2018-10-03T01:02:59.807Z,7.53
2018-10-03T01:05:28.038Z,7.80
2018-10-03T01:07:56.225Z,6.90
2018-10-03T01:10:24.432Z,6.70
2018-10-03T01:12:52.697Z,7.83
2018-10-03T01:15:20.903Z,7.70
2018-10-03T01:17:49.103Z,7.90
2018-10-03T01:20:17.268Z,8.33
2018-10-03T01:22:45.528Z,7.70
2018-10-03T01:25:13.753Z,8.63
2018-10-03T01:27:41.987Z,8.33
2018-10-03T01:30:10.231Z,7.60
2018-10-03T01:32:38.430Z,8.43
2018-10-03T01:35:06.638Z,8.83
2018-10-03T01:37:34.833Z,6.83
2018-10-03T01:40:03.095Z,7.33
2018-10-03T01:42:31.470Z,8.20
2018-10-03T01:45:00.611Z,7.93
2018-10-03T01:47:28.794Z,7.27
2018-10-03T01:49:56.971Z,8.73
2018-10-03T01:52:25.211Z,8.53
2018-10-03T01:54:53.989Z,8.20
2018-10-03T01:57:22.203Z,8.40
2018-10-03T01:59:50.551Z,7.60
2018-10-03T02:02:18.758Z,8.07
2018-10-03T02:04:47.955Z,6.57
2018-10-03T02:07:16.159Z,7.43
2018-10-03T02:09:44.409Z,8.37
2018-10-03T02:12:19.093Z,7.73
2018-10-03T02:14:48.261Z,7.00
2018-10-03T02:17:16.386Z,7.07
2018-10-03T02:19:44.611Z,8.27
2018-10-03T02:22:12.824Z,7.87
2018-10-03T02:24:41.374Z,7.60
2018-10-03T02:27:09.576Z,7.70
2018-10-03T02:29:38.543Z,8.57
2018-10-03T02:32:06.718Z,8.60
2018-10-03T02:34:34.948Z,7.63
2018-10-03T02:37:03.153Z,7.70
2018-10-03T02:39:31.360Z,9.00
2018-10-03T02:41:59.569Z,8.90
2018-10-03T02:44:27.760Z,9.23
2018-10-03T02:46:56.017Z,8.27
2018-10-03T02:49:24.198Z,9.23
2018-10-03T02:51:52.424Z,9.80
2018-10-03T02:54:20.735Z,10.30
2018-10-03T02:56:48.983Z,9.33
2018-10-03T02:59:17.771Z,8.87
2018-10-03T03:01:46.049Z,9.20
2018-10-03T03:04:14.211Z,8.57
2018-10-03T03:06:43.561Z,8.73
2018-10-03T03:09:13.322Z,9.70
2018-10-03T03:11:41.770Z,9.07
2018-10-03T03:14:09.984Z,10.13
2018-10-03T03:16:38.199Z,10.77
2018-10-03T03:19:06.556Z,10.03
2018-10-03T03:21:34.761Z,10.37
2018-10-03T03:24:02.975Z,8.60
2018-10-03T03:26:31.344Z,9.30
2018-10-03T03:29:00.417Z,8.73
2018-10-03T03:31:28.627Z,9.30
2018-10-03T03:33:56.883Z,9.83
2018-10-03T03:36:25.096Z,9.50
2018-10-03T03:38:53.299Z,8.93
2018-10-03T03:41:21.528Z,10.80
2018-10-03T03:43:49.837Z,9.80
2018-10-03T03:46:18.115Z,10.47
2018-10-03T03:48:49.836Z,10.77
2018-10-03T03:51:18.567Z,9.83
2018-10-03T03:53:46.781Z,10.37
2018-10-03T03:56:14.977Z,9.77
2018-10-03T03:58:43.235Z,9.83
2018-10-03T04:01:11.490Z,9.83
2018-10-03T04:03:39.702Z,10.97
2018-10-03T04:06:07.862Z,10.97
2018-10-03T04:08:36.068Z,10.50
2018-10-03T04:11:05.880Z,10.37
2018-10-03T04:13:34.043Z,9.97
2018-10-03T04:16:02.267Z,11.15
2018-10-03T04:18:30.504Z,11.47
2018-10-03T04:20:58.685Z,9.47
2018-10-03T04:23:26.979Z,10.20
2018-10-03T04:25:55.215Z,10.13
2018-10-03T04:28:23.417Z,10.63
2018-10-03T04:30:51.673Z,9.40
2018-10-03T04:33:19.890Z,9.40
2018-10-03T04:35:48.183Z,9.23
2018-10-03T04:38:16.326Z,9.30
2018-10-03T04:40:44.582Z,8.83
2018-10-03T04:43:13.596Z,9.17
2018-10-03T04:45:41.817Z,8.17
2018-10-03T04:48:09.973Z,7.83
2018-10-03T04:50:38.243Z,8.33
2018-10-03T04:53:07.228Z,8.30
2018-10-03T04:55:35.632Z,7.00
2018-10-03T04:58:03.878Z,7.60
2018-10-03T05:00:32.068Z,7.63
2018-10-03T05:03:01.724Z,8.33
2018-10-03T05:05:29.922Z,8.00
2018-10-03T05:07:58.089Z,7.93
2018-10-03T05:10:26.324Z,7.17
2018-10-03T05:12:54.547Z,7.63
2018-10-03T05:15:23.492Z,7.07
2018-10-03T05:17:51.723Z,7.30
2018-10-03T05:20:19.931Z,7.23
2018-10-03T05:22:48.096Z,7.33
2018-10-03T05:25:16.414Z,7.33
2018-10-03T05:27:44.587Z,8.20
2018-10-03T05:30:12.925Z,7.23
2018-10-03T05:32:41.149Z,6.47
2018-10-03T05:35:09.430Z,6.17
2018-10-03T05:37:37.634Z,5.47
2018-10-03T05:40:05.815Z,5.60
2018-10-03T05:42:34.049Z,6.27
2018-10-03T05:45:07.803Z,5.63
2018-10-03T05:47:36.003Z,5.33
2018-10-03T05:50:04.192Z,5.47
2018-10-03T05:52:32.431Z,5.33
2018-10-03T05:55:00.678Z,4.70
2018-10-03T05:57:28.872Z,4.60
2018-10-03T05:59:57.125Z,4.10
2018-10-03T06:02:25.309Z,4.70
2018-10-03T06:04:53.477Z,4.57
2018-10-03T06:07:21.716Z,3.80
2018-10-03T06:09:50.298Z,3.27
2018-10-03T06:12:18.550Z,3.73
2018-10-03T06:14:46.736Z,3.50
2018-10-03T06:17:14.930Z,3.87
2018-10-03T06:19:43.167Z,3.57
2018-10-03T06:22:11.393Z,3.87
2018-10-03T06:24:39.563Z,3.60
2018-10-03T06:27:11.908Z,2.87
2018-10-03T06:29:40.622Z,3.80
2018-10-03T06:32:08.898Z,3.70
2018-10-03T06:34:37.146Z,3.43
2018-10-03T06:37:05.370Z,3.03
2018-10-03T06:39:33.765Z,2.40
2018-10-03T06:42:01.856Z,3.23
2018-10-03T06:44:30.088Z,2.83
2018-10-03T06:46:58.451Z,2.87
2018-10-03T06:49:26.725Z,2.70
2018-10-03T06:51:54.970Z,2.80
2018-10-03T06:54:23.140Z,2.57
2018-10-03T06:56:51.372Z,3.07
2018-10-03T06:59:20.441Z,2.17
2018-10-03T07:01:48.730Z,2.73
2018-10-03T07:04:16.952Z,2.77
2018-10-03T07:06:45.147Z,2.23
2018-10-03T07:09:16.902Z,2.40
2018-10-03T07:11:45.115Z,3.30
2018-10-03T07:14:13.286Z,2.77
2018-10-03T07:16:41.482Z,2.90
2018-10-03T07:19:09.730Z,2.10
2018-10-03T07:21:38.059Z,2.73
2018-10-03T07:24:06.256Z,2.60
2018-10-03T07:26:34.564Z,2.40
2018-10-03T07:29:02.789Z,2.30
2018-10-03T07:31:32.216Z,2.60
2018-10-03T07:34:00.485Z,2.70
2018-10-03T07:36:28.688Z,2.83
2018-10-03T07:38:56.878Z,2.90
2018-10-03T07:41:26.509Z,2.40
2018-10-03T07:43:54.704Z,2.10
2018-10-03T07:46:22.932Z,2.53
2018-10-03T07:48:51.108Z,2.77
2018-10-03T07:51:22.427Z,2.77
2018-10-03T07:53:50.697Z,3.00
2018-10-03T07:56:18.948Z,3.47
2018-10-03T07:58:47.113Z,3.10
2018-10-03T08:01:15.300Z,2.73
2018-10-03T08:03:45.758Z,3.10
2018-10-03T08:06:13.925Z,2.80
2018-10-03T08:08:42.119Z,2.70
2018-10-03T08:11:10.337Z,2.03
2018-10-03T08:13:38.594Z,2.73
2018-10-03T08:16:06.784Z,2.97
2018-10-03T08:18:35.028Z,3.27
2018-10-03T08:21:03.216Z,2.53
2018-10-03T08:23:41.224Z,2.53
2018-10-03T08:26:09.428Z,2.53
2018-10-03T08:28:37.633Z,2.80
2018-10-03T08:31:05.919Z,2.73
2018-10-03T08:33:34.136Z,2.17
2018-10-03T08:36:02.376Z,2.40
2018-10-03T08:38:30.572Z,2.70
2018-10-03T08:40:58.719Z,2.33
2018-10-03T08:43:27.681Z,2.27
2018-10-03T08:45:56.047Z,2.40
2018-10-03T08:48:24.270Z,2.73
2018-10-03T08:50:52.499Z,2.63
2018-10-03T08:53:20.711Z,1.90
2018-10-03T08:55:48.914Z,3.13
2018-10-03T08:58:17.219Z,2.80
2018-10-03T09:00:45.396Z,2.50
2018-10-03T09:03:13.624Z,3.10
2018-10-03T09:05:41.818Z,2.70
2018-10-03T09:08:15.826Z,2.53
2018-10-03T09:10:45.387Z,2.47
2018-10-03T09:13:14.217Z,2.23
2018-10-03T09:15:42.454Z,2.13
2018-10-03T09:18:10.716Z,2.57
2018-10-03T09:20:38.928Z,2.27
2018-10-03T09:23:07.211Z,2.40
2018-10-03T09:25:36.061Z,2.70
2018-10-03T09:28:04.470Z,2.20
2018-10-03T09:30:32.671Z,2.77
2018-10-03T09:33:00.948Z,2.53
2018-10-03T09:35:29.261Z,2.57
2018-10-03T09:37:57.541Z,2.83
2018-10-03T09:40:25.768Z,2.53
2018-10-03T09:42:53.989Z,2.60
2018-10-03T09:45:22.265Z,2.30
2018-10-03T09:47:51.154Z,2.33
2018-10-03T09:50:19.338Z,2.70
2018-10-03T09:52:47.520Z,2.53
2018-10-03T09:55:15.698Z,2.60
2018-10-03T09:57:43.912Z,2.80
2018-10-03T10:00:12.090Z,2.60
2018-10-03T10:02:40.272Z,2.37
2018-10-03T10:05:08.900Z,2.50
2018-10-03T10:07:37.927Z,2.40
2018-10-03T10:10:06.194Z,2.70
2018-10-03T10:12:34.347Z,3.37
2018-10-03T10:15:02.595Z,2.57
2018-10-03T10:17:30.790Z,2.40
2018-10-03T10:19:59.011Z,3.00
2018-10-03T10:22:27.270Z,2.33
2018-10-03T10:24:55.444Z,3.03
2018-10-03T10:27:23.613Z,2.40
2018-10-03T10:29:54.507Z,2.27
2018-10-03T10:32:22.789Z,2.00
2018-10-03T10:34:50.956Z,1.87
2018-10-03T10:37:19.157Z,2.20
2018-10-03T10:39:47.481Z,2.23
2018-10-03T10:42:15.670Z,1.90
2018-10-03T10:44:43.967Z,2.10
2018-10-03T10:47:12.175Z,2.87
2018-10-03T10:49:41.216Z,2.23
2018-10-03T10:52:09.528Z,2.30
2018-10-03T10:54:37.705Z,2.27
2018-10-03T10:57:06.011Z,1.90
2018-10-03T10:59:34.980Z,1.93
2018-10-03T11:02:03.166Z,2.53
2018-10-03T11:04:31.391Z,2.70
2018-10-03T11:06:59.599Z,2.07
2018-10-03T11:09:27.789Z,2.37
2018-10-03T11:11:56.036Z,2.93
2018-10-03T11:14:24.278Z,2.50
2018-10-03T11:16:52.505Z,2.37
2018-10-03T11:19:20.729Z,2.60
2018-10-03T11:21:48.923Z,2.00
2018-10-03T11:24:17.231Z,2.70
2018-10-03T11:26:45.347Z,2.33
2018-10-03T11:29:13.567Z,2.37
2018-10-03T11:31:42.196Z,2.20
2018-10-03T11:34:10.392Z,2.57
2018-10-03T11:36:38.584Z,2.13
2018-10-03T11:39:08.383Z,1.87
2018-10-03T11:41:36.651Z,2.13
2018-10-03T11:44:05.532Z,2.10
2018-10-03T11:46:33.789Z,2.77
2018-10-03T11:49:01.980Z,1.70
2018-10-03T11:51:30.154Z,2.27
2018-10-03T11:54:03.576Z,2.23
2018-10-03T11:56:31.759Z,2.27
2018-10-03T11:58:59.974Z,2.00
2018-10-03T12:01:28.182Z,2.10
2018-10-03T12:03:56.397Z,2.60
2018-10-03T12:06:24.579Z,2.03
2018-10-03T12:08:52.841Z,2.10
2018-10-03T12:11:21.028Z,2.33
2018-10-03T12:13:49.676Z,2.20
2018-10-03T12:16:17.806Z,2.03
2018-10-03T12:18:46.036Z,1.87
2018-10-03T12:21:14.541Z,2.17
2018-10-03T12:23:42.795Z,2.07
2018-10-03T12:26:11.065Z,1.80
2018-10-03T12:28:39.239Z,1.77
2018-10-03T12:31:07.532Z,2.60
2018-10-03T12:33:35.712Z,2.50
2018-10-03T12:36:09.684Z,2.73
2018-10-03T12:38:37.900Z,1.70
2018-10-03T12:41:06.105Z,1.80
2018-10-03T12:43:34.293Z,2.30
2018-10-03T12:46:02.491Z,2.40
2018-10-03T12:48:30.679Z,2.07
2018-10-03T12:50:58.860Z,2.50
2018-10-03T12:53:27.036Z,2.40
2018-10-03T12:55:57.090Z,2.47
2018-10-03T12:58:25.442Z,1.80
2018-10-03T13:00:53.668Z,2.07
2018-10-03T13:03:21.896Z,1.97
2018-10-03T13:05:54.014Z,1.40
2018-10-03T13:08:22.192Z,2.20
2018-10-03T13:10:50.374Z,1.50
2018-10-03T13:13:18.622Z,1.93
2018-10-03T13:15:46.954Z,1.90
2018-10-03T13:18:15.204Z,1.77
2018-10-03T13:20:43.552Z,1.83
2018-10-03T13:23:11.855Z,2.17
2018-10-03T13:25:40.031Z,2.30
2018-10-03T13:28:08.343Z,1.93
2018-10-03T13:30:36.609Z,2.60
2018-10-03T13:33:04.817Z,1.73
2018-10-03T13:35:33.059Z,2.43
2018-10-03T13:38:01.295Z,2.23
2018-10-03T13:40:29.493Z,1.77
2018-10-03T13:42:57.682Z,2.00
2018-10-03T13:45:25.888Z,2.20
2018-10-03T13:47:54.491Z,2.23
2018-10-03T13:50:22.721Z,2.07
2018-10-03T13:52:51.294Z,2.20
2018-10-03T13:55:19.525Z,2.63
2018-10-03T13:57:47.727Z,2.20
2018-10-03T14:00:15.986Z,2.10
2018-10-03T14:02:44.229Z,2.30
2018-10-03T14:05:12.426Z,2.57
2018-10-03T14:07:40.674Z,1.63
2018-10-03T14:10:10.078Z,2.13
2018-10-03T14:12:38.338Z,2.10
2018-10-03T14:15:06.576Z,2.00
2018-10-03T14:17:34.816Z,1.87
2018-10-03T14:20:07.885Z,2.17
2018-10-03T14:22:36.070Z,2.33
2018-10-03T14:25:04.336Z,2.20
2018-10-03T14:27:32.564Z,2.37
2018-10-03T14:30:02.097Z,2.33
2018-10-03T14:32:30.524Z,2.23
2018-10-03T14:34:58.707Z,2.60
2018-10-03T14:37:26.910Z,2.13
2018-10-03T14:39:55.187Z,2.67
2018-10-03T14:42:23.401Z,2.27
2018-10-03T14:44:51.577Z,2.50
2018-10-03T14:47:19.847Z,2.23
2018-10-03T14:49:48.050Z,2.20
2018-10-03T14:52:16.302Z,2.00
2018-10-03T14:54:44.454Z,2.03
2018-10-03T14:57:12.820Z,2.10
2018-10-03T14:59:41.549Z,1.70
2018-10-03T15:02:09.811Z,2.77
2018-10-03T15:04:38.091Z,2.13
2018-10-03T15:07:06.585Z,2.30
2018-10-03T15:09:34.816Z,1.90
2018-10-03T15:12:06.726Z,2.07
2018-10-03T15:14:34.942Z,2.00
2018-10-03T15:17:03.173Z,2.23
2018-10-03T15:19:31.379Z,1.90
2018-10-03T15:21:59.644Z,2.07
2018-10-03T15:24:27.859Z,2.23
2018-10-03T15:26:56.092Z,2.17
2018-10-03T15:29:24.957Z,1.60
2018-10-03T15:31:53.266Z,2.73
2018-10-03T15:34:22.680Z,1.73
2018-10-03T15:36:50.935Z,1.63
2018-10-03T15:39:19.288Z,2.10
2018-10-03T15:41:47.500Z,3.50
2018-10-03T15:44:20.120Z,2.53
2018-10-03T15:46:48.343Z,2.97
2018-10-03T15:49:16.624Z,2.17
2018-10-03T15:51:44.815Z,4.87
2018-10-03T15:54:13.061Z,3.67
2018-10-03T15:56:41.248Z,2.70
2018-10-03T15:59:09.476Z,3.07
2018-10-03T16:01:37.677Z,2.07
2018-10-03T16:04:08.776Z,2.17
2018-10-03T16:06:36.990Z,2.03
2018-10-03T16:09:06.227Z,2.23
2018-10-03T16:11:34.412Z,2.23
2018-10-03T16:14:02.644Z,2.03
2018-10-03T16:16:30.841Z,2.20
2018-10-03T16:18:59.077Z,1.90
2018-10-03T16:21:27.276Z,2.33
2018-10-03T16:23:55.458Z,2.23
2018-10-03T16:26:23.761Z,2.10
2018-10-03T16:28:51.881Z,1.90
2018-10-03T16:31:20.115Z,1.77
2018-10-03T16:33:48.264Z,1.80
2018-10-03T16:36:16.500Z,1.90
2018-10-03T16:38:44.769Z,2.30
2018-10-03T16:41:12.992Z,2.07
2018-10-03T16:43:41.168Z,2.23
2018-10-03T16:46:12.808Z,1.83
2018-10-03T16:48:41.003Z,2.23
2018-10-03T16:51:09.204Z,1.93
2018-10-03T16:53:37.415Z,2.00
2018-10-03T16:56:05.615Z,2.20
2018-10-03T16:58:33.846Z,2.57
2018-10-03T17:01:02.120Z,1.73
2018-10-03T17:03:30.240Z,2.03
2018-10-03T17:05:58.490Z,2.00
2018-10-03T17:08:27.887Z,2.07
2018-10-03T17:10:56.042Z,1.90
2018-10-03T17:13:24.195Z,2.33
2018-10-03T17:15:52.412Z,1.53
2018-10-03T17:18:20.664Z,2.07
2018-10-03T17:20:48.938Z,2.10
2018-10-03T17:23:17.923Z,1.70
2018-10-03T17:25:46.144Z,2.10
2018-10-03T17:28:14.737Z,1.90
2018-10-03T17:30:42.944Z,1.83
2018-10-03T17:33:11.121Z,2.07
2018-10-03T17:35:39.366Z,1.67
2018-10-03T17:38:07.578Z,1.83
2018-10-03T17:40:35.799Z,1.37
2018-10-03T17:43:03.954Z,2.00
2018-10-03T17:45:32.125Z,1.70
2018-10-03T17:48:00.351Z,2.20
2018-10-03T17:50:28.603Z,1.97
2018-10-03T17:52:56.803Z,1.53
2018-10-03T17:55:25.050Z,2.13
2018-10-03T17:57:53.337Z,1.63
2018-10-03T18:00:21.640Z,1.60
2018-10-03T18:02:49.929Z,1.50
2018-10-03T18:05:18.139Z,1.90
2018-10-03T18:07:46.475Z,2.17
2018-10-03T18:10:17.798Z,1.60
2018-10-03T18:12:46.000Z,1.90
2018-10-03T18:15:14.243Z,2.20
2018-10-03T18:17:43.321Z,1.87
2018-10-03T18:20:11.513Z,2.07
2018-10-03T18:22:39.723Z,2.20
2018-10-03T18:25:08.344Z,1.55
2018-10-03T18:27:36.574Z,1.80
2018-10-03T18:30:05.190Z,1.57
2018-10-03T18:32:33.438Z,1.70
2018-10-03T18:35:01.886Z,2.13
2018-10-03T18:37:30.206Z,2.77
2018-10-03T18:39:58.573Z,3.73
2018-10-03T18:42:26.762Z,4.27
2018-10-03T18:44:55.088Z,3.97
2018-10-03T18:47:23.447Z,3.67
2018-10-03T18:49:52.717Z,3.30
2018-10-03T18:52:21.251Z,2.60
2018-10-03T18:54:49.542Z,2.93
2018-10-03T18:57:17.934Z,2.27
2018-10-03T18:59:46.236Z,2.00
2018-10-03T19:02:14.482Z,2.00
2018-10-03T19:04:42.650Z,2.17
2018-10-03T19:07:10.834Z,2.03
2018-10-03T19:09:39.015Z,1.90
2018-10-03T19:12:07.303Z,1.87
2018-10-03T19:14:35.516Z,2.17
2018-10-03T19:17:03.736Z,1.70
2018-10-03T19:19:32.375Z,1.77
2018-10-03T19:22:00.607Z,1.70
2018-10-03T19:24:30.009Z,2.93
2018-10-03T19:26:58.231Z,2.37
2018-10-03T19:29:27.767Z,2.60
2018-10-03T19:31:56.044Z,2.77
2018-10-03T19:34:24.523Z,2.10
2018-10-03T19:36:52.719Z,2.07
2018-10-03T19:39:20.918Z,1.90
2018-10-03T19:41:49.141Z,2.13
2018-10-03T19:44:17.393Z,1.87
2018-10-03T19:46:45.612Z,1.80
2018-10-03T19:49:13.820Z,1.47
2018-10-03T19:51:42.053Z,1.90
2018-10-03T19:54:10.295Z,1.77
2018-10-03T19:56:38.523Z,2.00
2018-10-03T19:59:06.741Z,1.50
2018-10-03T20:01:41.738Z,2.27
2018-10-03T20:04:09.981Z,2.12
2018-10-03T20:06:38.353Z,1.97
2018-10-03T20:09:07.560Z,1.90
2018-10-03T20:11:35.731Z,1.67
2018-10-03T20:14:03.998Z,1.77
2018-10-03T20:16:32.207Z,2.30
2018-10-03T20:19:00.459Z,2.17
2018-10-03T20:21:28.881Z,2.00
2018-10-03T20:23:57.027Z,2.10
2018-10-03T20:26:29.156Z,2.13
2018-10-03T20:28:57.374Z,2.33
2018-10-03T20:31:25.602Z,1.93
2018-10-03T20:33:53.778Z,2.70
2018-10-03T20:36:21.992Z,1.90
2018-10-03T20:38:50.189Z,2.58
2018-10-03T20:41:18.479Z,2.05
2018-10-03T20:43:46.712Z,2.40
2018-10-03T20:46:14.967Z,2.05
2018-10-03T20:48:47.006Z,2.30
2018-10-03T20:51:15.235Z,2.00
2018-10-03T20:53:44.424Z,2.42
2018-10-03T20:56:12.625Z,3.83
2018-10-03T20:58:40.848Z,4.00
2018-10-03T21:01:09.026Z,3.80
2018-10-03T21:03:37.212Z,3.65
2018-10-03T21:06:05.408Z,3.57
2018-10-03T21:08:36.376Z,4.30
2018-10-03T21:11:04.568Z,4.30
2018-10-03T21:13:32.751Z,3.25
2018-10-03T21:16:01.117Z,3.02
2018-10-03T21:18:31.476Z,2.55
2018-10-03T21:21:01.631Z,2.80
2018-10-03T21:23:29.838Z,2.80
2018-10-03T21:25:58.119Z,2.90
2018-10-03T21:28:26.315Z,2.40
2018-10-03T21:30:55.348Z,2.60
2018-10-03T21:33:23.592Z,2.22
2018-10-03T21:35:51.798Z,2.83
2018-10-03T21:38:20.047Z,2.52
2018-10-03T21:40:48.285Z,2.23
2018-10-03T21:43:16.609Z,2.55
2018-10-03T21:45:44.809Z,2.10
2018-10-03T21:48:13.073Z,2.30
2018-10-03T21:50:41.967Z,2.43
2018-10-03T21:53:10.183Z,2.20
2018-10-03T21:55:38.414Z,1.83
2018-10-03T21:58:06.579Z,2.47
2018-10-03T22:00:44.711Z,2.35
2018-10-03T22:03:12.999Z,2.17
2018-10-03T22:05:41.181Z,1.70
2018-10-03T22:08:09.353Z,1.98
2018-10-03T22:10:39.793Z,2.13
2018-10-03T22:13:08.023Z,1.85
2018-10-03T22:15:36.292Z,2.20
2018-10-03T22:18:04.513Z,1.98
2018-10-03T22:20:32.867Z,2.03
2018-10-03T22:23:01.514Z,2.40
2018-10-03T22:25:29.664Z,2.20
2018-10-03T22:27:58.062Z,2.27
2018-10-03T22:30:26.261Z,2.42
2018-10-03T22:32:55.341Z,1.90
2018-10-03T22:35:23.560Z,2.22
2018-10-03T22:37:51.795Z,1.82
2018-10-03T22:40:20.067Z,2.15
2018-10-03T22:42:49.009Z,1.90
2018-10-03T22:45:17.237Z,2.10
2018-10-03T22:47:45.657Z,1.80
2018-10-03T22:50:13.835Z,1.90
2018-10-03T22:52:42.695Z,2.37
2018-10-03T22:55:10.949Z,2.47
2018-10-03T22:57:39.175Z,2.35
2018-10-03T23:00:09.040Z,2.10
2018-10-03T23:02:38.391Z,2.00
2018-10-03T23:05:07.058Z,1.75
2018-10-03T23:07:35.221Z,2.30
2018-10-03T23:10:03.523Z,2.17
2018-10-03T23:12:31.724Z,2.40
2018-10-03T23:14:59.952Z,2.10
2018-10-03T23:17:28.145Z,2.07
2018-10-03T23:19:56.326Z,1.90
2018-10-03T23:22:24.615Z,2.07
2018-10-03T23:24:52.803Z,1.85
2018-10-03T23:27:20.975Z,2.00
2018-10-03T23:29:49.306Z,1.80
2018-10-03T23:32:17.538Z,1.72
2018-10-03T23:34:45.821Z,2.10
2018-10-03T23:37:13.996Z,1.77
2018-10-03T23:42:16.810Z,2.00
2018-10-03T23:44:46.056Z,2.02
2018-10-03T23:47:14.321Z,2.10
2018-10-03T23:49:42.547Z,2.52
2018-10-03T23:52:11.278Z,2.27
2018-10-03T23:54:39.489Z,2.12
2018-10-03T23:57:07.715Z,2.20
2018-10-03T23:59:36.430Z,2.25
